logo
Rechercher aéroport 
image banner adimage banner adimage banner ad
image banner ad

FA0642 - Contermanskloof

Situé à , South Africa

ICAO - , IATA -

Données fournies par Airmate  

Information générale

Coordonnées: S33°47'60" E18°34'44"
Élévation : 346 feet MSL.
 
Voir autres Aéroports à Western Cape

Données opérationnelles

Special qualification required
Heure actuelle UTC:
Heure actuelle locale:
Météo à : - ( 0 km )
METAR: PAHX 290902Z AUTO 00000KT 10SM OVC110 13/05 A2977 RMK AO2 SLP080 T01280050 53011
Voir NOTAMs / SUP AIP / TFR affectant cet aéroport [VIEW]
Fréquences de communication: [VIEW]

Pistes:

Coordonnées de l'aéroport

Adresse: South Africa

Vue satellite de FA0642